Friday 16 November 2012- Romansleigh - fog

If you wish to post your complete observations, with or without comments, please use this forum.

Friday 16 November 2012- Romansleigh - fog

Postby Andy Page » 2012 Nov 16, 14:01

Persistent low stratus and fog here in North Devon today with visibility 800 metres at 0900, but mostly in the range 150-300 metres since 1000. Also occasional slight drizzle.

16/0850 Z Nov 12: SE F2 800M -DZ FG 8ST001 7.5/7.5 1014
Rmks: 0900-0900 - max 8.1, min 6.2, rain 0.2 mm. 2100-0900 - min 6.8, grass min (1500-0900) 6.5.

16/1100 Z Nov 12: SE F3 150M -DZ FG 8ST000 8.9/8.9 1013

16/1400 Z Nov 12: SE F2 200M -DZ FG 8ST000 10.2/10.2 1010
Andy Page
Romansleigh (195 m AMSL)
COL station 87028
Andy Page
 
Posts: 21
Joined: 2012 Jan 27, 20:09

Re: Friday 16 November 2012- Romansleigh - fog

Postby Andy Page » 2012 Nov 16, 20:23

16/2010 Z Nov 12: SSE F3 500M FG 8ST000 10.7/10.7 1007 RERA
Rmks: Moderate to heavy rain 1755-1915 Z gave 4.5 mm, with a max rate of 7.8 mm/hr at 1912. Max so far 10.7, rain (since 0900) 5.1 mm.
Andy Page
Romansleigh (195 m AMSL)
COL station 87028
Andy Page
 
Posts: 21
Joined: 2012 Jan 27, 20:09

Re: Friday 16 November 2012- Romansleigh - fog

Postby Richard Hunt » 2012 Nov 16, 21:32

HSEA 160630Z 23005KT 0500 -DZ MIFG OVC002 05/05 Q1015

HSEA 161600Z 18008KT 4000 BR OVC004 07/06 Q1012 NOSIG

HSEA 161930Z 18005KT 5000 HZ OVC003 07/06 Q1010 NOSIG

HSEA 162045Z VRB02KT 2000 BR OVC002 07/06 Q1010 VCSHRA

HSEA 162120Z 18005KT 3000 BR -RA OVC002 07/06 Q1009 VCRA

Misty and hazy all day but dry until about half hour ago. Light rain just started. Winds also light all day.
COL Station: 25020.

Watson W-8681 AWS. Standard Stevenson Screen. Maximum and Minimum screen thermometers. Grass minimum thermometer.
5" Copper standard rain gauge. Roof mounted annemometer.
Richard Hunt
 
Posts: 374
Joined: 2012 Jan 27, 19:23
Location: Hornsea, East Yorkshire. 10m AMSL


Return to Current Conditions



Who is online

Users browsing this forum: No registered users and 1 guest

cron